createdAt,value
2022-12-17T00:05:14.426Z,100825.44
2022-12-17T00:10:34.435Z,100820.34
2022-12-17T00:15:53.187Z,100820.19
2022-12-17T00:21:21.484Z,100821.34
2022-12-17T00:26:41.361Z,100820.59
2022-12-17T00:31:59.681Z,100830.25
2022-12-17T00:37:18.332Z,100829.28
2022-12-17T00:42:38.035Z,100833.63
2022-12-17T00:47:56.220Z,100844.00
2022-12-17T00:53:14.274Z,100852.13
2022-12-17T00:58:33.851Z,100858.75
2022-12-17T01:03:52.070Z,100867.28
2022-12-17T01:09:10.310Z,100869.81
2022-12-17T01:14:29.820Z,100873.81
2022-12-17T01:19:53.539Z,100873.91
2022-12-17T01:25:14.847Z,100884.63
2022-12-17T01:30:34.653Z,100898.16
2022-12-17T01:35:52.908Z,100896.66
2022-12-17T01:41:16.947Z,100905.84
2022-12-17T01:46:37.004Z,100899.97
2022-12-17T01:51:55.514Z,100892.75
2022-12-17T01:57:16.768Z,100898.34
2022-12-17T02:02:36.623Z,100902.56
2022-12-17T02:08:11.211Z,100912.97
2022-12-17T02:13:37.252Z,100913.56
2022-12-17T02:19:03.722Z,100914.56
2022-12-17T02:24:30.855Z,100923.00
2022-12-17T02:30:10.817Z,100924.63
2022-12-17T02:35:34.972Z,100916.91
2022-12-17T02:40:54.762Z,100919.81
2022-12-17T02:46:17.074Z,100924.97
2022-12-17T02:51:36.271Z,100924.63
2022-12-17T02:56:54.443Z,100942.31
2022-12-17T03:02:14.263Z,100937.78
2022-12-17T03:07:32.504Z,100941.00
2022-12-17T03:12:50.781Z,100946.47
2022-12-17T03:18:10.248Z,100951.19
2022-12-17T03:23:30.291Z,100950.75
2022-12-17T03:28:48.699Z,100952.84
2022-12-17T03:34:08.476Z,100963.19
2022-12-17T03:39:26.906Z,100964.13
2022-12-17T03:44:45.019Z,100968.91
2022-12-17T03:50:13.057Z,100962.75
2022-12-17T03:55:31.637Z,100962.81
2022-12-17T04:00:49.961Z,100974.03
2022-12-17T04:06:09.368Z,100975.97
2022-12-17T04:11:24.074Z,100988.53
2022-12-17T04:16:42.632Z,100985.22
2022-12-17T04:22:02.267Z,101001.88
2022-12-17T04:27:19.959Z,101012.59
2022-12-17T04:32:38.214Z,101021.63
2022-12-17T04:37:57.741Z,101017.25
2022-12-17T04:43:16.223Z,101020.91
2022-12-17T04:48:34.504Z,101024.69
2022-12-17T04:53:54.424Z,101030.28
2022-12-17T04:59:12.580Z,101021.44
2022-12-17T05:04:30.636Z,101029.72
2022-12-17T05:09:50.414Z,101039.47
2022-12-17T05:15:08.462Z,101041.28
2022-12-17T05:20:27.843Z,101044.31
2022-12-17T05:25:47.240Z,101051.53
2022-12-17T05:31:10.546Z,101056.78
2022-12-17T05:36:31.681Z,101078.13
2022-12-17T05:41:51.879Z,101086.16
2022-12-17T05:47:09.896Z,101083.16
2022-12-17T05:52:28.534Z,101088.31
2022-12-17T05:57:53.093Z,101098.28
2022-12-17T06:03:18.549Z,101099.97
2022-12-17T06:08:51.529Z,101098.81
2022-12-17T06:14:10.926Z,101107.41
2022-12-17T06:19:29.384Z,101107.69
2022-12-17T06:24:47.915Z,101105.13
2022-12-17T06:30:07.317Z,101116.13
2022-12-17T06:35:26.672Z,101121.41
2022-12-17T06:40:45.067Z,101128.66
2022-12-17T06:46:04.851Z,101134.78
2022-12-17T06:51:23.448Z,101146.84
2022-12-17T06:56:42.939Z,101152.06
2022-12-17T07:02:02.804Z,101161.47
2022-12-17T07:07:21.425Z,101161.16
2022-12-17T07:12:39.677Z,101166.38
2022-12-17T07:17:59.514Z,101182.00
2022-12-17T07:23:17.608Z,101189.88
2022-12-17T07:28:36.076Z,101191.69
2022-12-17T07:33:55.555Z,101198.47
2022-12-17T07:39:15.585Z,101195.34
2022-12-17T07:44:33.675Z,101210.06
2022-12-17T07:49:54.013Z,101207.66
2022-12-17T07:55:17.973Z,101206.91
2022-12-17T08:00:36.532Z,101224.06
2022-12-17T08:05:55.941Z,101228.72
2022-12-17T08:11:14.836Z,101230.97
2022-12-17T08:16:33.383Z,101245.69
2022-12-17T08:21:52.998Z,101259.63
2022-12-17T08:27:11.405Z,101263.81
2022-12-17T08:32:29.855Z,101269.56
2022-12-17T08:37:50.101Z,101273.28
2022-12-17T08:43:15.510Z,101282.41
2022-12-17T08:48:35.271Z,101282.91
2022-12-17T08:53:54.700Z,101284.59
2022-12-17T08:59:12.853Z,101288.81
2022-12-17T09:04:31.290Z,101295.06
2022-12-17T09:09:51.482Z,101308.16
2022-12-17T09:15:09.890Z,101304.72
2022-12-17T09:20:29.645Z,101305.66
2022-12-17T09:25:53.691Z,101306.38
2022-12-17T09:31:18.085Z,101301.38
2022-12-17T09:36:36.369Z,101319.63
2022-12-17T09:42:06.712Z,101320.38
2022-12-17T09:47:45.448Z,101325.06
2022-12-17T09:53:03.927Z,101328.72
2022-12-17T09:58:24.666Z,101320.78
2022-12-17T10:03:43.070Z,101326.25
2022-12-17T10:09:02.748Z,101336.19
2022-12-17T10:14:29.030Z,101339.69
2022-12-17T10:19:50.239Z,101343.94
2022-12-17T10:25:08.428Z,101345.84
2022-12-17T10:30:36.973Z,101355.47
2022-12-17T10:35:56.371Z,101357.06
2022-12-17T10:41:14.663Z,101356.88
2022-12-17T10:46:45.315Z,101360.72
2022-12-17T10:52:03.684Z,101373.69
2022-12-17T10:57:24.537Z,101368.88
2022-12-17T11:02:47.084Z,101376.84
2022-12-17T11:08:06.340Z,101377.06
2022-12-17T11:13:30.944Z,101371.66
2022-12-17T11:18:58.928Z,101374.13
2022-12-17T11:24:22.671Z,101379.81
2022-12-17T11:29:41.281Z,101379.53
2022-12-17T11:35:19.059Z,101385.22
2022-12-17T11:40:44.932Z,101384.94
2022-12-17T11:46:17.977Z,101380.94
2022-12-17T11:51:47.542Z,101383.91
2022-12-17T11:57:08.952Z,101386.09
2022-12-17T12:02:43.424Z,101399.72
2022-12-17T12:08:13.365Z,101398.91
2022-12-17T12:13:40.844Z,101400.41
2022-12-17T12:19:09.616Z,101400.63
2022-12-17T12:24:44.903Z,101404.25
2022-12-17T12:30:11.757Z,101408.31
2022-12-17T12:35:34.905Z,101409.31
2022-12-17T12:41:02.972Z,101412.84
2022-12-17T12:46:25.594Z,101423.25
2022-12-17T12:51:46.731Z,101420.88
2022-12-17T12:57:06.539Z,101417.66
2022-12-17T13:02:37.890Z,101430.81
2022-12-17T13:07:38.843Z,101434.94
2022-12-17T13:12:47.267Z,101433.50
2022-12-17T13:17:59.034Z,101439.94
2022-12-17T13:23:18.116Z,101443.72
2022-12-17T13:28:31.735Z,101448.84
2022-12-17T13:33:41.093Z,101452.16
2022-12-17T13:38:50.627Z,101459.22
2022-12-17T13:43:56.898Z,101472.28
2022-12-17T13:49:00.620Z,101476.56
2022-12-17T13:54:03.578Z,101470.00
2022-12-17T13:59:09.527Z,101488.38
2022-12-17T14:04:21.493Z,101481.63
2022-12-17T14:09:25.157Z,101497.78
2022-12-17T14:14:31.691Z,101509.69
2022-12-17T14:19:34.527Z,101518.78
2022-12-17T14:24:35.623Z,101519.47
2022-12-17T14:29:47.537Z,101530.56
2022-12-17T14:34:48.387Z,101532.94
2022-12-17T14:39:50.132Z,101538.94
2022-12-17T14:44:54.743Z,101545.78
2022-12-17T14:50:08.102Z,101544.53
2022-12-17T14:55:28.105Z,101558.28
2022-12-17T15:00:30.308Z,101558.13
2022-12-17T15:05:31.092Z,101568.75
2022-12-17T15:10:31.940Z,101571.13
2022-12-17T15:15:34.166Z,101586.59
2022-12-17T15:20:34.984Z,101583.78
2022-12-17T15:25:41.804Z,101588.34
2022-12-17T15:30:48.414Z,101588.94
2022-12-17T15:35:49.288Z,101603.63
2022-12-17T15:40:50.073Z,101594.75
2022-12-17T15:45:53.237Z,101595.00
2022-12-17T15:50:54.034Z,101596.47
2022-12-17T15:56:00.514Z,101594.63
2022-12-17T16:01:06.769Z,101605.50
2022-12-17T16:06:07.842Z,101604.38
2022-12-17T16:11:09.766Z,101605.72
2022-12-17T16:16:12.008Z,101620.66
2022-12-17T16:21:12.804Z,101617.72
2022-12-17T16:26:13.611Z,101626.97
2022-12-17T16:31:17.243Z,101626.34
2022-12-17T16:36:20.829Z,101631.78
2022-12-17T16:41:22.503Z,101628.09
2022-12-17T16:46:28.252Z,101633.59
2022-12-17T16:51:29.785Z,101649.25
2022-12-17T16:56:33.887Z,101659.13
2022-12-17T17:01:41.528Z,101656.03
2022-12-17T17:06:45.111Z,101656.25
2022-12-17T17:11:51.159Z,101664.22
2022-12-17T17:16:54.322Z,101669.84
2022-12-17T17:21:55.659Z,101665.47
2022-12-17T17:26:56.897Z,101676.59
2022-12-17T17:32:10.619Z,101679.28
2022-12-17T17:37:12.056Z,101681.97
2022-12-17T17:42:12.875Z,101694.81
2022-12-17T17:47:15.083Z,101694.00
2022-12-17T17:52:15.881Z,101695.78
2022-12-17T17:57:16.677Z,101690.16
2022-12-17T18:02:18.959Z,101694.38
2022-12-17T18:07:27.960Z,101690.09
2022-12-17T18:12:46.973Z,101696.44
2022-12-17T18:17:52.072Z,101711.78
2022-12-17T18:22:52.917Z,101713.97
2022-12-17T18:27:54.296Z,101721.19
2022-12-17T18:32:57.263Z,101725.69
2022-12-17T18:37:58.508Z,101729.88
2022-12-17T18:43:18.367Z,101748.66
2022-12-17T18:48:21.135Z,101745.66
2022-12-17T18:53:23.394Z,101749.59
2022-12-17T18:58:24.180Z,101753.00
2022-12-17T19:03:26.471Z,101757.00
2022-12-17T19:08:27.307Z,101768.59
2022-12-17T19:13:28.137Z,101772.44
2022-12-17T19:18:30.422Z,101763.59
2022-12-17T19:23:33.606Z,101772.75
2022-12-17T19:28:34.870Z,101776.97
2022-12-17T19:33:37.657Z,101790.78
2022-12-17T19:38:38.890Z,101797.56
2022-12-17T19:43:40.057Z,101794.78
2022-12-17T19:48:48.233Z,101796.84
2022-12-17T19:53:51.622Z,101802.03
2022-12-17T19:58:53.931Z,101805.19
2022-12-17T20:03:57.031Z,101806.91
2022-12-17T20:08:59.519Z,101817.53
2022-12-17T20:14:02.103Z,101818.72
2022-12-17T20:19:05.905Z,101811.38
2022-12-17T20:24:07.631Z,101820.16
2022-12-17T20:29:09.424Z,101822.88
2022-12-17T20:34:14.720Z,101836.69
2022-12-17T20:39:15.623Z,101841.25
2022-12-17T20:44:16.550Z,101839.53
2022-12-17T20:49:18.906Z,101851.34
2022-12-17T20:54:19.861Z,101851.13
2022-12-17T20:59:20.758Z,101860.00
2022-12-17T21:04:22.957Z,101855.88
2022-12-17T21:09:25.398Z,101872.00
2022-12-17T21:14:29.218Z,101858.22
2022-12-17T21:19:35.984Z,101870.50
2022-12-17T21:24:37.472Z,101879.03
2022-12-17T21:29:38.392Z,101888.06
2022-12-17T21:34:40.828Z,101887.66
2022-12-17T21:39:42.189Z,101890.31
2022-12-17T21:44:43.055Z,101895.91
2022-12-17T21:49:45.450Z,101906.19
2022-12-17T21:54:47.466Z,101901.44
2022-12-17T21:59:48.278Z,101909.22
2022-12-17T22:04:51.484Z,101907.22
2022-12-17T22:10:18.912Z,101903.34
2022-12-17T22:15:13.282Z,101906.22
2022-12-17T22:20:17.450Z,101915.03
2022-12-17T22:25:18.696Z,101917.78
2022-12-17T22:30:37.319Z,101929.22
2022-12-17T22:37:37.680Z,101943.09
2022-12-17T22:44:29.615Z,101938.28
2022-12-17T22:46:29.014Z,101941.53
2022-12-17T22:51:35.578Z,101939.78
2022-12-17T22:57:34.995Z,101949.94
2022-12-17T23:02:02.718Z,101956.22
2022-12-17T23:07:04.980Z,101956.94
2022-12-17T23:12:20.025Z,101955.84
2022-12-17T23:17:20.861Z,101955.38
2022-12-17T23:22:22.986Z,101956.22
2022-12-17T23:27:23.869Z,101960.53
2022-12-17T23:32:24.652Z,101967.78
2022-12-17T23:37:26.853Z,101983.19
2022-12-17T23:42:27.669Z,101985.72
2022-12-17T23:47:28.761Z,101978.72
2022-12-17T23:52:31.424Z,101971.41
2022-12-17T23:57:32.223Z,101969.31
